createdAt,value
2018-11-22T00:02:18.779Z,65.70
2018-11-22T00:04:47.725Z,72.23
2018-11-22T00:07:16.755Z,67.63
2018-11-22T00:09:46.646Z,63.43
2018-11-22T00:12:15.691Z,66.00
2018-11-22T00:14:44.683Z,64.20
2018-11-22T00:17:13.649Z,67.50
2018-11-22T00:19:42.680Z,66.73
2018-11-22T00:22:12.455Z,64.10
2018-11-22T00:24:41.525Z,69.27
2018-11-22T00:27:10.500Z,69.17
2018-11-22T00:29:39.504Z,65.23
2018-11-22T00:32:08.501Z,64.90
2018-11-22T00:34:37.524Z,66.43
2018-11-22T00:37:06.631Z,64.60
2018-11-22T00:39:35.646Z,70.17
2018-11-22T00:42:04.736Z,65.70
2018-11-22T00:44:33.793Z,63.77
2018-11-22T00:47:02.931Z,64.37
2018-11-22T00:49:31.947Z,69.22
2018-11-22T00:52:01.103Z,63.67
2018-11-22T00:54:30.025Z,66.07
2018-11-22T00:56:58.966Z,65.47
2018-11-22T00:59:27.981Z,64.93
2018-11-22T01:01:56.970Z,64.13
2018-11-22T01:04:25.993Z,63.87
2018-11-22T01:06:54.967Z,64.73
2018-11-22T01:09:23.918Z,67.50
2018-11-22T01:11:52.930Z,66.37
2018-11-22T01:14:21.918Z,70.70
2018-11-22T01:16:50.919Z,66.57
2018-11-22T01:19:19.971Z,72.57
2018-11-22T01:21:49.063Z,66.30
2018-11-22T01:24:18.131Z,67.80
2018-11-22T01:26:47.132Z,72.93
2018-11-22T01:29:16.134Z,66.40
2018-11-22T01:31:45.144Z,70.97
2018-11-22T01:34:14.516Z,72.45
2018-11-22T01:36:43.487Z,65.83
2018-11-22T01:39:12.966Z,63.60
2018-11-22T01:41:41.934Z,67.07
2018-11-22T01:44:10.950Z,64.57
2018-11-22T01:46:39.948Z,66.53
2018-11-22T01:49:08.980Z,75.20
2018-11-22T01:51:37.956Z,73.77
2018-11-22T01:54:07.094Z,65.87
2018-11-22T01:56:36.157Z,64.67
2018-11-22T01:59:05.465Z,68.47
2018-11-22T02:01:34.435Z,69.93
2018-11-22T02:04:03.448Z,67.10
2018-11-22T02:06:32.454Z,67.47
2018-11-22T02:09:01.448Z,64.87
2018-11-22T02:11:30.491Z,66.13
2018-11-22T02:13:59.475Z,66.83
2018-11-22T02:16:28.483Z,67.07
2018-11-22T02:18:57.490Z,69.87
2018-11-22T02:21:26.462Z,71.17
2018-11-22T02:23:55.447Z,67.50
2018-11-22T02:26:24.410Z,67.63
2018-11-22T02:28:53.464Z,65.63
2018-11-22T02:31:22.450Z,66.83
2018-11-22T02:33:51.470Z,71.67
2018-11-22T02:36:20.447Z,70.70
2018-11-22T02:38:49.435Z,63.43
2018-11-22T02:41:18.423Z,63.33
2018-11-22T02:43:47.434Z,66.20
2018-11-22T02:46:16.335Z,63.47
2018-11-22T02:48:45.268Z,64.73
2018-11-22T02:51:14.161Z,68.30
2018-11-22T02:53:43.070Z,68.13
2018-11-22T02:56:12.015Z,67.07
2018-11-22T02:58:40.963Z,71.80
2018-11-22T03:01:09.872Z,71.43
2018-11-22T03:03:38.862Z,65.73
2018-11-22T03:06:07.980Z,66.73
2018-11-22T03:08:36.857Z,66.47
2018-11-22T03:11:06.190Z,66.57
2018-11-22T03:13:35.142Z,65.93
2018-11-22T03:16:04.084Z,66.23
2018-11-22T03:18:32.954Z,63.27
2018-11-22T03:21:01.880Z,70.77
2018-11-22T03:23:30.778Z,67.23
2018-11-22T03:25:59.709Z,66.63
2018-11-22T03:28:28.651Z,67.00
2018-11-22T03:30:57.649Z,64.17
2018-11-22T03:33:26.591Z,67.07
2018-11-22T03:35:55.491Z,67.40
2018-11-22T03:38:24.405Z,64.63
2018-11-22T03:43:33.923Z,67.13
2018-11-22T03:46:02.913Z,68.57
2018-11-22T03:48:31.779Z,65.57
2018-11-22T03:51:00.745Z,67.97
2018-11-22T03:53:29.620Z,68.17
2018-11-22T03:55:58.527Z,67.87
2018-11-22T03:58:27.431Z,66.23
2018-11-22T04:00:56.368Z,66.93
2018-11-22T04:03:25.302Z,68.60
2018-11-22T04:05:54.273Z,70.67
2018-11-22T04:08:23.163Z,71.37
2018-11-22T04:10:52.121Z,66.20
2018-11-22T04:13:21.036Z,68.70
2018-11-22T04:15:49.964Z,71.83
2018-11-22T04:18:18.878Z,64.77
2018-11-22T04:20:47.780Z,67.37
2018-11-22T04:23:16.682Z,68.27
2018-11-22T04:25:45.579Z,69.60
2018-11-22T04:28:14.485Z,71.80
2018-11-22T04:30:43.451Z,76.37
2018-11-22T04:33:12.372Z,66.00
2018-11-22T04:35:41.361Z,66.87
2018-11-22T04:38:10.310Z,70.27
2018-11-22T04:40:39.245Z,70.90
2018-11-22T04:43:08.203Z,66.87
2018-11-22T04:45:37.149Z,68.53
2018-11-22T04:48:06.411Z,70.70
2018-11-22T04:50:39.267Z,67.73
2018-11-22T04:53:08.210Z,66.50
2018-11-22T04:55:37.139Z,71.60
2018-11-22T04:58:06.119Z,69.40
2018-11-22T05:00:35.013Z,70.40
2018-11-22T05:03:03.952Z,64.07
2018-11-22T05:05:32.863Z,66.47
2018-11-22T05:08:01.784Z,70.53
2018-11-22T05:10:30.725Z,67.07
2018-11-22T05:12:59.623Z,68.60
2018-11-22T05:15:30.057Z,65.37
2018-11-22T05:17:58.908Z,66.73
2018-11-22T05:20:27.822Z,69.87
2018-11-22T05:22:56.732Z,69.72
2018-11-22T05:25:25.644Z,71.02
2018-11-22T05:27:54.564Z,65.80
2018-11-22T05:30:25.213Z,67.00
2018-11-22T05:32:54.162Z,59.37
2018-11-22T05:35:23.466Z,63.33
2018-11-22T05:37:52.434Z,62.33
2018-11-22T05:40:22.783Z,62.10
2018-11-22T05:42:51.682Z,62.07
2018-11-22T05:45:22.031Z,63.57
2018-11-22T05:47:50.924Z,61.73
2018-11-22T05:50:21.424Z,62.90
2018-11-22T05:52:50.855Z,64.80
2018-11-22T05:55:19.811Z,59.00
2018-11-22T05:57:48.769Z,55.40
2018-11-22T06:00:20.306Z,57.67
2018-11-22T06:02:49.509Z,59.27
2018-11-22T06:05:19.617Z,58.37
2018-11-22T06:07:48.677Z,60.57
2018-11-22T06:10:19.418Z,55.97
2018-11-22T06:12:49.025Z,57.43
2018-11-22T06:15:18.247Z,58.83
2018-11-22T06:17:47.876Z,55.63
2018-11-22T06:20:21.055Z,61.42
2018-11-22T06:22:50.620Z,61.65
2018-11-22T06:25:19.888Z,58.90
2018-11-22T06:27:49.238Z,59.67
2018-11-22T06:30:22.875Z,57.50
2018-11-22T06:32:53.266Z,50.77
2018-11-22T06:35:23.272Z,54.57
2018-11-22T06:37:52.228Z,53.73
2018-11-22T06:40:21.132Z,51.77
2018-11-22T06:42:51.422Z,55.60
2018-11-22T06:45:21.822Z,54.97
2018-11-22T06:47:50.753Z,57.43
2018-11-22T06:50:20.533Z,57.87
2018-11-22T06:52:49.483Z,53.47
2018-11-22T06:55:22.550Z,59.00
2018-11-22T06:57:51.485Z,55.80
2018-11-22T07:00:21.796Z,53.67
2018-11-22T07:02:51.685Z,58.23
2018-11-22T07:05:21.686Z,53.47
2018-11-22T07:07:50.648Z,51.07
2018-11-22T07:10:19.873Z,52.00
2018-11-22T07:12:49.054Z,54.50
2018-11-22T07:15:18.695Z,55.60
2018-11-22T07:17:47.681Z,51.80
2018-11-22T07:20:20.814Z,52.50
2018-11-22T07:22:50.867Z,53.13
2018-11-22T07:25:21.081Z,55.10
2018-11-22T07:27:50.287Z,52.17
2018-11-22T07:30:20.894Z,51.33
2018-11-22T07:32:50.156Z,54.40
2018-11-22T07:35:20.533Z,53.50
2018-11-22T07:37:49.438Z,54.83
2018-11-22T07:40:20.072Z,51.33
2018-11-22T07:42:50.630Z,56.70
2018-11-22T07:45:19.890Z,56.20
2018-11-22T07:47:49.077Z,49.50
2018-11-22T07:50:19.385Z,52.30
2018-11-22T07:52:48.348Z,56.23
2018-11-22T07:55:18.180Z,50.60
2018-11-22T07:57:47.082Z,50.37
2018-11-22T08:00:26.535Z,50.03
2018-11-22T08:02:55.449Z,51.70
2018-11-22T08:05:25.353Z,52.30
2018-11-22T08:07:54.284Z,51.10
2018-11-22T08:10:23.530Z,53.67
2018-11-22T08:12:53.864Z,54.90
2018-11-22T08:15:27.392Z,50.97
2018-11-22T08:17:56.300Z,55.77
2018-11-22T08:20:25.983Z,53.73
2018-11-22T08:22:55.841Z,52.83
2018-11-22T08:25:25.730Z,51.17
2018-11-22T08:27:54.756Z,52.73
2018-11-22T08:30:24.418Z,51.57
2018-11-22T08:32:53.442Z,52.97
2018-11-22T08:35:22.752Z,53.17
2018-11-22T08:37:51.880Z,55.10
2018-11-22T08:40:22.429Z,51.00
2018-11-22T08:42:55.262Z,52.90
2018-11-22T08:45:21.500Z,52.33
2018-11-22T08:47:50.421Z,56.23
2018-11-22T08:50:21.053Z,55.70
2018-11-22T08:52:51.189Z,58.38
2018-11-22T08:55:20.459Z,52.80
2018-11-22T08:57:49.627Z,58.35
2018-11-22T09:00:22.324Z,52.93
2018-11-22T09:02:51.291Z,54.27
2018-11-22T09:05:22.919Z,49.50
2018-11-22T09:07:54.884Z,52.77
2018-11-22T09:10:24.938Z,51.60
2018-11-22T09:12:56.412Z,50.93
2018-11-22T09:15:31.421Z,52.23
2018-11-22T09:17:59.102Z,53.50
2018-11-22T09:20:30.577Z,50.97
2018-11-22T09:23:01.715Z,56.83
2018-11-22T09:25:33.872Z,62.05
2018-11-22T09:28:14.336Z,59.48
2018-11-22T09:30:42.181Z,57.47
2018-11-22T09:33:11.695Z,54.43
2018-11-22T09:35:41.163Z,53.83
2018-11-22T09:38:10.716Z,57.83
2018-11-22T09:40:45.459Z,53.27
2018-11-22T09:43:15.997Z,50.03
2018-11-22T09:45:51.241Z,50.57
2018-11-22T09:48:22.571Z,56.03
2018-11-22T09:50:52.530Z,50.73
2018-11-22T09:53:22.187Z,54.07
2018-11-22T09:55:52.098Z,50.77
2018-11-22T09:58:28.478Z,50.97
2018-11-22T10:00:58.451Z,55.07
2018-11-22T10:03:30.898Z,53.97
2018-11-22T10:06:00.596Z,53.93
2018-11-22T10:08:33.163Z,50.13
2018-11-22T10:11:05.907Z,51.00
2018-11-22T10:13:41.085Z,50.97
2018-11-22T10:16:08.609Z,55.47
2018-11-22T10:18:41.489Z,80.37
2018-11-22T10:21:13.389Z,51.93
2018-11-22T10:23:42.962Z,52.63
2018-11-22T10:26:20.113Z,52.33
2018-11-22T10:28:50.672Z,50.67
2018-11-22T10:31:30.940Z,52.37
2018-11-22T10:34:03.077Z,53.03
2018-11-22T10:36:33.382Z,50.47
2018-11-22T10:39:06.246Z,54.00
2018-11-22T10:41:38.900Z,50.60
2018-11-22T10:44:14.601Z,50.50
2018-11-22T10:46:56.372Z,52.98
2018-11-22T10:49:28.663Z,49.20
2018-11-22T10:52:02.341Z,50.33
2018-11-22T10:54:35.155Z,49.57
2018-11-22T10:57:07.601Z,49.67
2018-11-22T10:59:39.186Z,48.60
2018-11-22T11:02:26.328Z,55.27
2018-11-22T11:05:16.603Z,46.63
2018-11-22T11:07:57.176Z,48.13
2018-11-22T11:10:31.618Z,48.33
2018-11-22T11:12:56.176Z,52.17
2018-11-22T11:15:28.800Z,49.40
2018-11-22T11:18:00.855Z,48.43
2018-11-22T11:20:35.852Z,49.33
2018-11-22T11:23:10.304Z,46.63
2018-11-22T11:25:35.051Z,50.17
2018-11-22T11:28:07.163Z,47.87
2018-11-22T11:30:39.101Z,47.73
2018-11-22T11:33:08.910Z,50.33
2018-11-22T11:35:44.593Z,63.90
2018-11-22T11:38:16.807Z,45.60
2018-11-22T11:40:48.243Z,48.93
2018-11-22T11:43:18.943Z,50.95
2018-11-22T11:45:51.829Z,45.97
2018-11-22T11:48:22.195Z,49.93
2018-11-22T11:50:54.443Z,47.13
2018-11-22T11:53:32.827Z,49.97
2018-11-22T11:55:56.798Z,47.20
2018-11-22T11:58:26.865Z,50.52
2018-11-22T12:00:59.279Z,46.77
2018-11-22T12:03:30.998Z,47.57
2018-11-22T12:06:00.913Z,47.70
2018-11-22T12:08:30.918Z,44.87
2018-11-22T12:11:07.882Z,51.53
2018-11-22T12:13:40.223Z,50.23
2018-11-22T12:16:15.760Z,45.77
2018-11-22T12:18:47.398Z,46.97
2018-11-22T12:21:26.530Z,46.80
2018-11-22T12:23:54.125Z,48.20
2018-11-22T12:26:28.540Z,46.30
2018-11-22T12:29:05.078Z,51.08
2018-11-22T12:31:34.414Z,46.47
2018-11-22T12:34:25.310Z,43.27
2018-11-22T12:37:11.269Z,45.97
2018-11-22T12:39:43.588Z,45.13
2018-11-22T12:42:18.177Z,45.10
2018-11-22T12:44:50.822Z,40.67
2018-11-22T12:47:22.958Z,43.93
2018-11-22T12:49:53.542Z,43.17
2018-11-22T12:52:23.455Z,43.80
2018-11-22T12:54:55.479Z,43.23
2018-11-22T12:57:33.968Z,45.77
2018-11-22T13:00:03.798Z,45.07
2018-11-22T13:02:36.238Z,40.27
2018-11-22T13:05:06.139Z,43.37
2018-11-22T13:07:35.656Z,41.37
2018-11-22T13:10:06.806Z,47.27
2018-11-22T13:12:38.563Z,43.57
2018-11-22T13:15:06.957Z,40.90
2018-11-22T13:17:36.513Z,44.93
2018-11-22T13:20:08.506Z,41.93
2018-11-22T13:22:41.277Z,39.60
2018-11-22T13:25:10.480Z,46.70
2018-11-22T13:27:42.767Z,45.13
2018-11-22T13:30:20.174Z,40.80
2018-11-22T13:32:53.021Z,43.53
2018-11-22T13:35:25.192Z,46.60
2018-11-22T13:37:55.726Z,41.50
2018-11-22T13:40:25.462Z,40.33
2018-11-22T13:42:59.751Z,42.43
2018-11-22T13:45:30.118Z,41.00
2018-11-22T13:47:59.865Z,41.27
2018-11-22T13:50:30.917Z,44.37
2018-11-22T13:53:07.385Z,39.07
2018-11-22T13:55:40.148Z,40.37
2018-11-22T13:58:15.089Z,42.17
2018-11-22T14:00:47.264Z,39.57
2018-11-22T14:03:17.709Z,37.63
2018-11-22T14:05:47.843Z,36.63
2018-11-22T14:08:19.657Z,40.60
2018-11-22T14:10:52.791Z,39.00
2018-11-22T14:13:34.258Z,42.57
2018-11-22T14:16:07.425Z,39.00
2018-11-22T14:18:36.354Z,37.87
2018-11-22T14:21:07.147Z,36.67
2018-11-22T14:23:36.079Z,40.63
2018-11-22T14:26:05.083Z,39.90
2018-11-22T14:28:34.001Z,42.60
2018-11-22T14:31:02.938Z,40.33
2018-11-22T14:33:31.895Z,42.37
2018-11-22T14:36:00.731Z,42.30
2018-11-22T14:38:29.628Z,40.20
2018-11-22T14:40:58.615Z,39.23
2018-11-22T14:43:27.504Z,44.50
2018-11-22T14:45:56.446Z,41.93
2018-11-22T14:48:25.425Z,40.57
2018-11-22T14:51:03.540Z,39.00
2018-11-22T14:53:32.474Z,38.07
2018-11-22T14:56:01.403Z,40.53
2018-11-22T14:58:30.294Z,43.75
2018-11-22T15:00:59.215Z,41.13
2018-11-22T15:03:28.120Z,40.97
2018-11-22T15:05:57.069Z,41.10
2018-11-22T15:08:25.989Z,41.57
2018-11-22T15:10:54.987Z,41.67
2018-11-22T15:13:23.995Z,38.27
2018-11-22T15:15:52.843Z,55.00
2018-11-22T15:18:21.783Z,44.73
2018-11-22T15:20:50.681Z,42.73
2018-11-22T15:23:19.603Z,40.80
2018-11-22T15:25:48.532Z,41.80
2018-11-22T15:28:17.962Z,41.07
2018-11-22T15:30:46.945Z,37.97
2018-11-22T15:33:15.909Z,44.03
2018-11-22T15:35:44.851Z,40.30
2018-11-22T15:38:13.789Z,42.83
2018-11-22T15:40:42.751Z,38.43
2018-11-22T15:43:11.794Z,42.00
2018-11-22T15:45:40.735Z,42.43
2018-11-22T15:48:09.649Z,40.77
2018-11-22T15:50:38.646Z,43.00
2018-11-22T15:53:07.526Z,38.27
2018-11-22T15:55:36.464Z,43.10
2018-11-22T15:58:05.589Z,40.00
2018-11-22T16:00:35.053Z,42.77
2018-11-22T16:03:04.378Z,45.52
2018-11-22T16:05:33.681Z,39.93
2018-11-22T16:08:02.608Z,44.05
2018-11-22T16:10:33.184Z,42.33
2018-11-22T16:13:09.740Z,43.80
2018-11-22T16:15:47.555Z,45.10
2018-11-22T16:18:16.452Z,39.77
2018-11-22T16:20:45.521Z,38.30
2018-11-22T16:23:14.457Z,40.50
2018-11-22T16:25:43.361Z,38.40
2018-11-22T16:28:12.417Z,39.63
2018-11-22T16:30:42.138Z,40.10
2018-11-22T16:33:11.092Z,39.80
2018-11-22T16:35:40.060Z,39.50
2018-11-22T16:38:09.017Z,39.87
2018-11-22T16:40:37.976Z,39.37
2018-11-22T16:43:07.137Z,38.87
2018-11-22T16:45:37.138Z,39.70
2018-11-22T16:48:08.070Z,38.60
2018-11-22T16:50:38.131Z,40.73
2018-11-22T16:53:07.159Z,40.20
2018-11-22T16:55:36.074Z,37.87
2018-11-22T16:58:05.404Z,36.80
2018-11-22T17:00:38.201Z,37.93
2018-11-22T17:03:11.891Z,38.03
2018-11-22T17:05:41.254Z,38.07
2018-11-22T17:08:10.663Z,36.03
2018-11-22T17:10:40.057Z,38.57
2018-11-22T17:13:08.973Z,41.85
2018-11-22T17:15:39.260Z,36.77
2018-11-22T17:18:09.059Z,39.15
2018-11-22T17:20:37.949Z,38.20
2018-11-22T17:23:07.287Z,33.90
2018-11-22T17:25:36.792Z,38.83
2018-11-22T17:28:07.146Z,38.30
2018-11-22T17:30:40.590Z,38.40
2018-11-22T17:33:09.712Z,34.77
2018-11-22T17:35:39.306Z,33.40
2018-11-22T17:38:08.866Z,39.17
2018-11-22T17:40:39.474Z,35.63
2018-11-22T17:43:08.529Z,34.63
2018-11-22T17:45:38.939Z,35.30
2018-11-22T17:48:08.041Z,35.43
2018-11-22T17:50:38.719Z,35.50
2018-11-22T17:53:08.363Z,32.03
2018-11-22T17:55:37.535Z,34.73
2018-11-22T17:58:06.622Z,34.50
2018-11-22T18:00:36.826Z,33.43
2018-11-22T18:03:06.708Z,36.63
2018-11-22T18:05:35.833Z,33.73
2018-11-22T18:08:04.965Z,34.60
2018-11-22T18:10:38.286Z,33.70
2018-11-22T18:13:07.230Z,38.43
2018-11-22T18:15:57.774Z,33.97
2018-11-22T18:18:27.313Z,34.00
2018-11-22T18:20:56.198Z,35.27
2018-11-22T18:23:25.061Z,36.17
2018-11-22T18:25:53.971Z,36.13
2018-11-22T18:28:22.893Z,35.00
2018-11-22T18:30:51.858Z,36.60
2018-11-22T18:33:20.779Z,35.43
2018-11-22T18:35:49.718Z,40.37
2018-11-22T18:38:18.882Z,34.27
2018-11-22T18:40:47.799Z,35.97
2018-11-22T18:43:16.798Z,35.17
2018-11-22T18:45:46.572Z,36.20
2018-11-22T18:48:16.807Z,36.13
2018-11-22T18:50:47.022Z,35.83
2018-11-22T18:53:15.049Z,35.97
2018-11-22T18:55:43.972Z,40.73
2018-11-22T18:58:12.894Z,38.67
2018-11-22T19:00:43.500Z,41.45
2018-11-22T19:03:14.087Z,37.50
2018-11-22T19:05:42.985Z,37.57
2018-11-22T19:08:11.963Z,38.83
2018-11-22T19:10:41.707Z,38.60
2018-11-22T19:13:11.402Z,36.17
2018-11-22T19:15:41.856Z,36.17
2018-11-22T19:18:11.436Z,36.83
2018-11-22T19:20:41.777Z,37.85
2018-11-22T19:23:11.405Z,34.03
2018-11-22T19:25:40.354Z,35.33
2018-11-22T19:28:09.926Z,38.83
2018-11-22T19:30:40.466Z,36.53
2018-11-22T19:33:10.955Z,34.23
2018-11-22T19:35:44.350Z,33.57
2018-11-22T19:38:13.288Z,36.42
2018-11-22T19:40:42.837Z,37.17
2018-11-22T19:43:12.135Z,35.50
2018-11-22T19:45:42.590Z,38.67
2018-11-22T19:48:11.532Z,34.93
2018-11-22T19:50:40.469Z,34.90
2018-11-22T19:53:11.034Z,35.40
2018-11-22T19:55:40.361Z,33.13
2018-11-22T19:58:10.795Z,33.77
2018-11-22T20:00:39.674Z,35.20
2018-11-22T20:03:09.148Z,33.13
2018-11-22T20:05:39.555Z,35.27
2018-11-22T20:08:10.069Z,31.90
2018-11-22T20:10:40.496Z,36.57
2018-11-22T20:13:09.399Z,61.20
2018-11-22T20:15:38.342Z,54.30
2018-11-22T20:18:08.552Z,46.92
2018-11-22T20:20:37.445Z,38.40
2018-11-22T20:23:06.497Z,33.73
2018-11-22T20:25:35.425Z,30.23
2018-11-22T20:28:04.554Z,36.58
2018-11-22T20:30:34.775Z,36.20
2018-11-22T20:33:03.728Z,31.43
2018-11-22T20:35:32.876Z,38.03
2018-11-22T20:38:01.778Z,31.80
2018-11-22T20:40:30.785Z,33.70
2018-11-22T20:43:00.449Z,33.33
2018-11-22T20:45:30.070Z,37.58
2018-11-22T20:48:00.720Z,31.90
2018-11-22T20:50:30.226Z,34.40
2018-11-22T20:52:59.318Z,37.23
2018-11-22T20:55:29.610Z,37.73
2018-11-22T20:57:59.878Z,30.10
2018-11-22T21:00:30.175Z,31.80
2018-11-22T21:02:59.119Z,31.73
2018-11-22T21:05:28.717Z,32.07
2018-11-22T21:07:57.639Z,35.87
2018-11-22T21:10:27.788Z,38.13
2018-11-22T21:12:56.829Z,33.73
2018-11-22T21:15:27.092Z,33.60
2018-11-22T21:17:57.528Z,35.17
2018-11-22T21:20:28.362Z,34.80
2018-11-22T21:22:57.274Z,32.17
2018-11-22T21:25:26.318Z,31.87
2018-11-22T21:27:55.258Z,33.20
2018-11-22T21:30:26.613Z,33.37
2018-11-22T21:32:56.036Z,34.07
2018-11-22T21:35:24.926Z,38.13
2018-11-22T21:37:54.931Z,36.77
2018-11-22T21:40:24.396Z,33.47
2018-11-22T21:42:53.805Z,32.57
2018-11-22T21:45:23.814Z,36.23
2018-11-22T21:47:52.711Z,34.80
2018-11-22T21:50:25.593Z,32.00
2018-11-22T21:52:54.488Z,32.13
2018-11-22T21:55:27.526Z,33.47
2018-11-22T21:57:57.539Z,33.03
2018-11-22T22:00:29.669Z,34.63
2018-11-22T22:03:00.615Z,31.80
2018-11-22T22:05:29.515Z,34.43
2018-11-22T22:07:58.421Z,31.53
2018-11-22T22:10:27.364Z,34.00
2018-11-22T22:12:56.377Z,33.87
2018-11-22T22:15:26.716Z,31.77
2018-11-22T22:17:55.749Z,32.33
2018-11-22T22:20:26.254Z,40.03
2018-11-22T22:22:55.190Z,37.78
2018-11-22T22:25:24.813Z,36.23
2018-11-22T22:27:54.150Z,45.30
2018-11-22T22:30:24.236Z,46.87
2018-11-22T22:32:54.443Z,37.80
2018-11-22T22:35:23.431Z,32.27
2018-11-22T22:37:52.374Z,33.50
2018-11-22T22:40:22.719Z,32.37
2018-11-22T22:42:52.609Z,35.17
2018-11-22T22:45:22.583Z,34.87
2018-11-22T22:47:51.845Z,36.87
2018-11-22T22:50:27.816Z,37.53
2018-11-22T22:52:57.981Z,34.95
2018-11-22T22:55:27.329Z,32.50
2018-11-22T22:57:56.241Z,33.83
2018-11-22T23:00:40.749Z,30.83
2018-11-22T23:03:09.734Z,32.53
2018-11-22T23:05:38.826Z,32.53
2018-11-22T23:08:07.803Z,37.60
2018-11-22T23:10:36.735Z,33.97
2018-11-22T23:13:06.251Z,37.20
2018-11-22T23:15:35.157Z,32.37
2018-11-22T23:18:04.149Z,40.10
2018-11-22T23:20:34.314Z,37.73
2018-11-22T23:23:03.321Z,37.53
2018-11-22T23:25:32.273Z,30.90
2018-11-22T23:28:01.142Z,33.90
2018-11-22T23:30:31.457Z,33.70
2018-11-22T23:33:01.792Z,34.78
2018-11-22T23:35:30.712Z,31.03
2018-11-22T23:37:59.670Z,27.97
2018-11-22T23:40:29.666Z,33.33
2018-11-22T23:42:58.562Z,33.40
2018-11-22T23:45:31.208Z,35.70
2018-11-22T23:48:00.114Z,36.80
2018-11-22T23:50:30.329Z,32.73
2018-11-22T23:53:00.336Z,31.37
2018-11-22T23:55:29.247Z,36.17
2018-11-22T23:57:58.163Z,34.30
